Elk River, Minnesota
Current Conditions -  °F | °C
As of 1:54 AM on Saturday 20 Dec 2014 (Local Time) from KPNM Reporting Station
Haze Haze  
Wind Chill: 23°   Ceiling: 900
Heat Index: 30°   Visibility: 4mi
Dew Point: 28°   Wind: 7mph
Humidity: 93%   Direction: 150°SSE
Pressure: 30.13"   Gusts: NA
Location:  45.31°N, 93.57°W
Report Text: KPNM 200754Z AUTO 15006KT 4SM BR OVC009 M01/M02 A3013 RMK AO2
Loading
Personal Weather Stations






























Interactive Weather Map New forecast layout! Learn more

10-Day Weather Forecast

Advertisements
Track Severe Weather on mobile